createdAt,value
2022-08-02T00:01:12.056Z,99175.88
2022-08-02T00:03:41.931Z,99210.63
2022-08-02T00:06:11.895Z,99209.34
2022-08-02T00:08:41.964Z,99208.00
2022-08-02T00:11:13.379Z,99210.03
2022-08-02T00:13:43.898Z,99218.22
2022-08-02T00:16:16.719Z,99200.53
2022-08-02T00:18:47.900Z,99207.16
2022-08-02T00:21:18.026Z,99218.06
2022-08-02T00:24:29.383Z,99214.59
2022-08-02T00:26:40.499Z,99218.63
2022-08-02T00:29:10.381Z,99223.28
2022-08-02T00:31:40.489Z,99222.66
2022-08-02T00:34:29.927Z,99229.16
2022-08-02T00:37:00.954Z,99224.31
2022-08-02T00:39:34.052Z,99223.41
2022-08-02T00:42:07.294Z,99221.16
2022-08-02T00:44:37.309Z,99207.38
2022-08-02T00:47:07.445Z,99220.00
2022-08-02T00:49:37.588Z,99217.34
2022-08-02T00:52:08.283Z,99225.50
2022-08-02T00:54:38.493Z,99217.69
2022-08-02T00:57:09.964Z,99221.75
2022-08-02T00:59:39.910Z,99222.38
2022-08-02T01:02:10.347Z,99220.13
2022-08-02T01:04:40.508Z,99228.66
2022-08-02T01:07:13.126Z,99224.94
2022-08-02T01:09:44.086Z,99218.81
2022-08-02T01:12:16.550Z,99207.41
2022-08-02T01:14:49.208Z,99218.84
2022-08-02T01:17:24.784Z,99214.38
2022-08-02T01:20:06.612Z,99217.84
2022-08-02T01:23:03.663Z,99216.47
2022-08-02T01:26:04.205Z,99219.91
2022-08-02T01:28:40.011Z,99210.53
2022-08-02T01:31:17.579Z,99224.19
2022-08-02T01:33:52.997Z,99215.19
2022-08-02T01:36:25.014Z,99219.84
2022-08-02T01:38:57.030Z,99213.16
2022-08-02T01:41:29.686Z,99215.13
2022-08-02T01:44:03.109Z,99216.94
2022-08-02T01:46:35.066Z,99215.31
2022-08-02T01:49:09.542Z,99205.06
2022-08-02T01:51:58.590Z,99215.31
2022-08-02T01:54:32.419Z,99209.59
2022-08-02T01:57:03.778Z,99211.69
2022-08-02T01:59:36.345Z,99211.31
2022-08-02T02:02:10.340Z,99197.47
2022-08-02T02:04:42.115Z,99195.00
2022-08-02T02:07:15.798Z,99209.94
2022-08-02T02:09:50.473Z,99211.44
2022-08-02T02:12:24.419Z,99208.97
2022-08-02T02:14:57.266Z,99210.03
2022-08-02T02:17:52.826Z,99208.72
2022-08-02T02:20:21.364Z,99202.22
2022-08-02T02:22:52.017Z,99192.50
2022-08-02T02:25:32.941Z,99206.19
2022-08-02T02:28:11.226Z,99205.56
2022-08-02T02:30:49.972Z,99218.19
2022-08-02T02:33:24.159Z,99198.53
2022-08-02T02:35:59.327Z,99206.25
2022-08-02T02:38:32.848Z,99208.63
2022-08-02T02:41:04.249Z,99207.25
2022-08-02T02:43:36.497Z,99206.91
2022-08-02T02:46:09.767Z,99211.84
2022-08-02T02:48:40.836Z,99208.06
2022-08-02T02:51:13.950Z,99206.84
2022-08-02T02:54:30.588Z,99211.25
2022-08-02T02:56:38.137Z,99214.59
2022-08-02T02:59:09.253Z,99214.78
2022-08-02T03:01:57.419Z,99212.22
2022-08-02T03:04:55.218Z,99200.38
2022-08-02T03:07:19.562Z,99221.66
2022-08-02T03:09:54.234Z,99216.19
2022-08-02T03:12:31.503Z,99217.31
2022-08-02T03:15:05.546Z,99217.06
2022-08-02T03:17:44.923Z,99226.44
2022-08-02T03:20:17.192Z,99226.78
2022-08-02T03:22:48.968Z,99226.84
2022-08-02T03:25:19.822Z,99229.16
2022-08-02T03:27:49.749Z,99233.97
2022-08-02T03:30:19.775Z,99230.44
2022-08-02T03:32:51.652Z,99230.22
2022-08-02T03:35:24.485Z,99231.47
2022-08-02T03:37:56.864Z,99231.91
2022-08-02T03:40:27.229Z,99217.63
2022-08-02T03:42:57.831Z,99241.50
2022-08-02T03:45:28.179Z,99242.81
2022-08-02T03:47:59.877Z,99243.03
2022-08-02T03:50:30.068Z,99239.88
2022-08-02T03:53:00.563Z,99247.53
2022-08-02T03:55:30.520Z,99246.91
2022-08-02T03:58:00.694Z,99247.75
2022-08-02T04:00:30.763Z,99245.69
2022-08-02T04:03:03.468Z,99248.09
2022-08-02T04:05:33.440Z,99259.41
2022-08-02T04:08:35.165Z,99259.78
2022-08-02T04:11:11.145Z,99262.09
2022-08-02T04:13:42.100Z,99260.59
2022-08-02T04:16:17.288Z,99269.16
2022-08-02T04:18:55.156Z,99264.31
2022-08-02T04:21:48.517Z,99264.75
2022-08-02T04:24:24.513Z,99274.38
2022-08-02T04:26:57.845Z,99268.53
2022-08-02T04:29:34.284Z,99265.22
2022-08-02T04:32:06.057Z,99266.00
2022-08-02T04:34:37.432Z,99270.78
2022-08-02T04:37:08.268Z,99273.50
2022-08-02T04:39:38.276Z,99261.47
2022-08-02T04:42:09.058Z,99260.38
2022-08-02T04:44:39.219Z,99262.72
2022-08-02T04:47:09.764Z,99260.56
2022-08-02T04:49:41.115Z,99262.19
2022-08-02T04:52:11.462Z,99262.38
2022-08-02T04:54:41.597Z,99272.56
2022-08-02T04:57:26.149Z,99276.69
2022-08-02T04:59:57.383Z,99268.66
2022-08-02T05:02:27.479Z,99275.63
2022-08-02T05:04:58.845Z,99280.72
2022-08-02T05:07:29.389Z,99279.16
2022-08-02T05:10:06.952Z,99280.69
2022-08-02T05:12:38.958Z,99276.16
2022-08-02T05:15:12.728Z,99263.78
2022-08-02T05:17:47.404Z,99275.19
2022-08-02T05:20:20.206Z,99275.72
2022-08-02T05:22:50.128Z,99273.94
2022-08-02T05:25:20.084Z,99271.09
2022-08-02T05:27:50.004Z,99264.28
2022-08-02T05:30:20.091Z,99275.09
2022-08-02T05:32:52.651Z,99271.53
2022-08-02T05:35:25.859Z,99269.63
2022-08-02T05:37:55.719Z,99270.91
2022-08-02T05:40:26.294Z,99271.75
2022-08-02T05:42:56.515Z,99274.53
2022-08-02T05:45:27.025Z,99259.38
2022-08-02T05:47:57.412Z,99274.47
2022-08-02T05:50:28.763Z,99275.78
2022-08-02T05:53:05.236Z,99276.84
2022-08-02T05:55:36.937Z,99283.66
2022-08-02T05:58:14.424Z,99286.00
2022-08-02T06:00:46.453Z,99286.09
2022-08-02T06:03:23.560Z,99293.81
2022-08-02T06:06:01.311Z,99298.81
2022-08-02T06:08:34.615Z,99300.81
2022-08-02T06:11:07.581Z,99298.34
2022-08-02T06:13:38.808Z,99302.88
2022-08-02T06:16:14.180Z,99303.44
2022-08-02T06:18:45.590Z,99309.16
2022-08-02T06:22:31.917Z,99307.88
2022-08-02T06:24:09.746Z,99316.28
2022-08-02T06:26:40.048Z,99315.00
2022-08-02T06:29:10.523Z,99323.50
2022-08-02T06:31:42.514Z,99332.28
2022-08-02T06:34:15.223Z,99318.03
2022-08-02T06:36:57.266Z,99319.81
2022-08-02T06:39:34.139Z,99320.03
2022-08-02T06:42:09.875Z,99324.44
2022-08-02T06:44:50.036Z,99321.00
2022-08-02T06:47:22.929Z,99311.44
2022-08-02T06:49:54.183Z,99320.13
2022-08-02T06:52:30.001Z,99321.41
2022-08-02T06:55:01.655Z,99326.31
2022-08-02T06:57:32.125Z,99325.72
2022-08-02T07:00:05.043Z,99322.25
2022-08-02T07:02:36.478Z,99316.69
2022-08-02T07:05:07.424Z,99328.19
2022-08-02T07:07:38.830Z,99313.66
2022-08-02T07:10:09.840Z,99307.50
2022-08-02T07:12:40.164Z,99319.63
2022-08-02T07:15:12.605Z,99311.50
2022-08-02T07:17:42.518Z,99313.03
2022-08-02T07:20:13.586Z,99311.25
2022-08-02T07:22:44.987Z,99310.13
2022-08-02T07:25:14.996Z,99299.47
2022-08-02T07:27:45.272Z,99309.81
2022-08-02T07:30:15.299Z,99303.69
2022-08-02T07:32:45.494Z,99307.03
2022-08-02T07:35:16.377Z,99293.81
2022-08-02T07:37:54.859Z,99295.09
2022-08-02T07:40:27.363Z,99289.13
2022-08-02T07:43:03.334Z,99289.00
2022-08-02T07:45:36.074Z,99286.25
2022-08-02T07:48:15.826Z,99295.41
2022-08-02T07:50:46.792Z,99302.84
2022-08-02T07:53:18.315Z,99294.91
2022-08-02T07:55:48.247Z,99299.38
2022-08-02T07:58:18.290Z,99302.50
2022-08-02T08:00:48.318Z,99299.63
2022-08-02T08:03:18.178Z,99300.84
2022-08-02T08:05:49.380Z,99299.00
2022-08-02T08:08:21.099Z,99298.00
2022-08-02T08:10:51.156Z,99297.44
2022-08-02T08:13:21.328Z,99302.22
2022-08-02T08:15:52.725Z,99293.72
2022-08-02T08:18:23.539Z,99301.91
2022-08-02T08:20:53.538Z,99295.91
2022-08-02T08:23:25.987Z,99296.22
2022-08-02T08:25:55.857Z,99297.81
2022-08-02T08:28:25.793Z,99284.09
2022-08-02T08:30:55.808Z,99301.84
2022-08-02T08:33:25.912Z,99297.38
2022-08-02T08:35:56.448Z,99290.56
2022-08-02T08:38:28.662Z,99299.81
2022-08-02T08:40:58.952Z,99294.97
2022-08-02T08:43:28.786Z,99300.88
2022-08-02T08:45:58.757Z,99297.59
2022-08-02T08:48:31.756Z,99287.69
2022-08-02T08:51:08.317Z,99286.78
2022-08-02T08:53:44.262Z,99284.25
2022-08-02T08:56:16.756Z,99282.03
2022-08-02T08:58:48.561Z,99285.44
2022-08-02T09:01:18.689Z,99282.78
2022-08-02T09:03:48.685Z,99281.03
2022-08-02T09:06:18.939Z,99279.44
2022-08-02T09:08:50.426Z,99281.69
2022-08-02T09:11:24.469Z,99289.53
2022-08-02T09:13:56.689Z,99295.31
2022-08-02T09:16:35.615Z,99276.72
2022-08-02T09:19:19.493Z,99273.47
2022-08-02T09:21:50.836Z,99268.50
2022-08-02T09:24:23.711Z,99173.84
2022-08-02T09:26:53.761Z,99274.81
2022-08-02T09:29:26.184Z,99265.97
2022-08-02T09:32:04.815Z,99274.19
2022-08-02T09:34:53.352Z,99266.16
2022-08-02T09:37:25.302Z,99258.97
2022-08-02T09:39:59.861Z,99271.16
2022-08-02T09:42:30.723Z,99266.13
2022-08-02T09:45:03.528Z,99253.13
2022-08-02T09:47:37.270Z,99264.75
2022-08-02T09:50:13.318Z,99275.19
2022-08-02T09:52:45.069Z,99262.78
2022-08-02T09:55:16.619Z,99270.22
2022-08-02T09:57:50.983Z,99260.50
2022-08-02T10:00:37.233Z,99261.16
2022-08-02T10:03:21.617Z,99264.59
2022-08-02T10:05:56.191Z,99268.63
2022-08-02T10:08:34.007Z,99258.34
2022-08-02T10:11:05.746Z,99251.22
2022-08-02T10:13:37.432Z,99248.69
2022-08-02T10:16:07.806Z,99252.88
2022-08-02T10:18:39.804Z,99256.03
2022-08-02T10:21:15.731Z,99261.81
2022-08-02T10:23:47.445Z,99261.78
2022-08-02T10:26:22.133Z,99242.63
2022-08-02T10:28:55.173Z,99257.00
2022-08-02T10:31:28.897Z,99248.22
2022-08-02T10:34:01.200Z,99255.41
2022-08-02T10:36:33.643Z,99255.41
2022-08-02T10:39:04.038Z,99241.09
2022-08-02T10:41:50.223Z,99242.72
2022-08-02T10:44:25.960Z,99256.47
2022-08-02T10:47:24.464Z,99245.97
2022-08-02T10:49:56.234Z,99245.16
2022-08-02T10:52:26.904Z,99252.00
2022-08-02T10:54:58.439Z,99241.16
2022-08-02T10:57:31.995Z,99255.47
2022-08-02T11:00:05.258Z,99247.66
2022-08-02T11:02:41.119Z,99251.53
2022-08-02T11:05:13.367Z,99250.25
2022-08-02T11:07:47.427Z,99232.91
2022-08-02T11:10:38.657Z,99242.72
2022-08-02T11:13:13.995Z,99229.25
2022-08-02T11:15:58.929Z,99233.91
2022-08-02T11:19:03.673Z,99236.38
2022-08-02T11:21:37.664Z,99226.94
2022-08-02T11:24:28.766Z,99215.22
2022-08-02T11:27:01.576Z,99221.81
2022-08-02T11:29:40.861Z,99228.41
2022-08-02T11:32:18.353Z,99231.09
2022-08-02T11:34:50.721Z,99229.63
2022-08-02T11:37:30.155Z,99224.34
2022-08-02T11:40:00.144Z,99226.53
2022-08-02T11:42:34.062Z,99218.78
2022-08-02T11:45:08.381Z,99212.56
2022-08-02T11:47:47.278Z,99206.97
2022-08-02T11:50:18.411Z,99211.97
2022-08-02T11:52:48.757Z,99214.28
2022-08-02T11:55:18.745Z,99206.81
2022-08-02T11:58:04.808Z,99203.00
2022-08-02T12:00:37.158Z,99213.47
2022-08-02T12:03:08.760Z,99198.88
2022-08-02T12:06:04.931Z,99200.00
2022-08-02T12:08:30.069Z,99198.06
2022-08-02T12:11:03.934Z,99200.28
2022-08-02T12:13:45.013Z,99203.44
2022-08-02T12:16:52.621Z,99213.41
2022-08-02T12:19:26.537Z,99206.16
2022-08-02T12:22:12.581Z,99206.78
2022-08-02T12:24:44.412Z,99209.47
2022-08-02T12:27:30.368Z,99209.47
2022-08-02T12:30:02.778Z,99205.63
2022-08-02T12:32:34.271Z,99206.97
2022-08-02T12:35:12.348Z,99208.34
2022-08-02T12:37:45.629Z,99200.66
2022-08-02T12:40:27.245Z,99179.03
2022-08-02T12:42:59.098Z,99196.41
2022-08-02T12:45:38.380Z,99186.53
2022-08-02T12:48:14.041Z,99192.81
2022-08-02T12:50:44.390Z,99195.31
2022-08-02T12:53:16.702Z,99185.41
2022-08-02T12:56:00.039Z,99185.44
2022-08-02T12:58:47.290Z,99172.25
2022-08-02T13:01:22.709Z,99175.56
2022-08-02T13:04:12.214Z,99173.41
2022-08-02T13:06:45.153Z,99181.41
2022-08-02T13:09:17.976Z,99175.59
2022-08-02T13:11:48.364Z,99178.09
2022-08-02T13:14:18.610Z,99173.97
2022-08-02T13:16:49.324Z,99173.94
2022-08-02T13:19:20.808Z,99184.13
2022-08-02T13:22:02.277Z,99183.56
2022-08-02T13:24:40.150Z,99177.22
2022-08-02T13:27:24.178Z,99185.53
2022-08-02T13:29:55.055Z,99181.94
2022-08-02T13:32:26.494Z,99182.19
2022-08-02T13:34:58.340Z,99185.47
2022-08-02T13:37:28.530Z,99176.69
2022-08-02T13:40:20.455Z,99182.22
2022-08-02T13:42:50.038Z,99176.72
2022-08-02T13:45:19.977Z,99185.75
2022-08-02T13:48:04.775Z,99190.47
2022-08-02T13:50:36.822Z,99185.22
2022-08-02T13:53:06.985Z,99178.88
2022-08-02T13:55:37.356Z,99189.31
2022-08-02T13:58:13.481Z,99191.50
2022-08-02T14:00:43.372Z,99185.47
2022-08-02T14:03:13.332Z,99192.88
2022-08-02T14:05:48.431Z,99195.34
2022-08-02T14:08:20.380Z,99183.50
2022-08-02T14:10:51.799Z,99197.53
2022-08-02T14:13:22.041Z,99196.13
2022-08-02T14:15:52.733Z,99198.63
2022-08-02T14:18:22.619Z,99194.25
2022-08-02T14:20:53.877Z,99197.75
2022-08-02T14:23:49.639Z,99194.19
2022-08-02T14:26:26.861Z,99194.75
2022-08-02T14:28:58.004Z,99192.78
2022-08-02T14:31:28.947Z,99190.88
2022-08-02T14:33:58.890Z,99197.25
2022-08-02T14:36:30.343Z,99205.19
2022-08-02T14:39:01.596Z,99198.03
2022-08-02T14:41:34.024Z,99208.94
2022-08-02T14:44:23.756Z,99200.66
2022-08-02T14:46:54.702Z,99198.72
2022-08-02T14:49:26.778Z,99200.06
2022-08-02T14:51:58.631Z,99174.16
2022-08-02T14:54:31.570Z,99201.16
2022-08-02T14:57:04.787Z,99197.00
2022-08-02T14:59:34.987Z,99195.66
2022-08-02T15:02:05.520Z,99185.25
2022-08-02T15:04:42.874Z,99187.16
2022-08-02T15:07:15.745Z,99186.59
2022-08-02T15:09:45.669Z,99180.31
2022-08-02T15:12:16.889Z,99185.25
2022-08-02T15:14:47.453Z,99188.78
2022-08-02T15:17:17.404Z,99189.03
2022-08-02T15:19:57.776Z,99194.22
2022-08-02T15:22:32.384Z,99189.03
2022-08-02T15:25:03.020Z,99187.38
2022-08-02T15:27:34.378Z,99190.66
2022-08-02T15:30:10.046Z,99188.72
2022-08-02T15:32:40.552Z,99194.00
2022-08-02T15:35:25.342Z,99187.13
2022-08-02T15:37:56.808Z,99182.72
2022-08-02T15:40:27.023Z,99187.63
2022-08-02T15:42:56.917Z,99194.47
2022-08-02T15:45:27.886Z,99195.53
2022-08-02T15:47:58.011Z,99193.34
2022-08-02T15:50:28.473Z,99190.00
2022-08-02T15:52:59.883Z,99183.91
2022-08-02T15:55:30.242Z,99183.09
2022-08-02T15:58:22.562Z,99195.31
2022-08-02T16:00:53.006Z,99144.56
2022-08-02T16:03:23.403Z,99189.53
2022-08-02T16:05:53.616Z,99185.09
2022-08-02T16:08:24.956Z,99185.84
2022-08-02T16:10:54.827Z,99195.00
2022-08-02T16:13:53.107Z,99196.88
2022-08-02T16:16:25.619Z,99200.00
2022-08-02T16:18:55.847Z,99206.31
2022-08-02T16:21:26.053Z,99209.53
2022-08-02T16:24:02.259Z,99213.00
2022-08-02T16:26:34.370Z,99205.19
2022-08-02T16:29:06.075Z,99183.91
2022-08-02T16:31:41.579Z,99215.31
2022-08-02T16:34:12.862Z,99219.16
2022-08-02T16:36:42.954Z,99219.09
2022-08-02T16:39:14.506Z,99222.41
2022-08-02T16:41:51.949Z,99226.28
2022-08-02T16:44:29.237Z,99229.81
2022-08-02T16:47:01.496Z,99231.44
2022-08-02T16:50:04.901Z,99238.06
2022-08-02T16:52:21.863Z,99238.28
2022-08-02T16:54:53.141Z,99241.56
2022-08-02T16:57:23.240Z,99242.69
2022-08-02T17:00:08.605Z,99246.22
2022-08-02T17:02:40.889Z,99249.25
2022-08-02T17:05:14.311Z,99261.31
2022-08-02T17:08:15.268Z,99254.75
2022-08-02T17:10:37.555Z,99257.09
2022-08-02T17:13:10.772Z,99255.97
2022-08-02T17:16:16.092Z,99260.91
2022-08-02T17:18:34.766Z,99257.84
2022-08-02T17:21:14.086Z,99264.38
2022-08-02T17:24:08.388Z,99261.53
2022-08-02T17:26:40.080Z,99273.50
2022-08-02T17:29:15.945Z,99263.84
2022-08-02T17:32:04.742Z,99272.84
2022-08-02T17:34:36.752Z,99274.97
2022-08-02T17:37:06.923Z,99268.22
2022-08-02T17:42:30.005Z,99276.16
2022-08-02T17:48:04.788Z,99284.00
2022-08-02T17:50:35.757Z,99283.09
2022-08-02T17:53:06.222Z,99280.88
2022-08-02T17:55:42.275Z,99286.28
2022-08-02T17:58:13.853Z,99281.28
2022-08-02T18:00:44.901Z,99290.31
2022-08-02T18:03:15.288Z,99289.16
2022-08-02T18:05:53.429Z,99297.06
2022-08-02T18:08:25.485Z,99297.81
2022-08-02T18:10:55.961Z,99299.16
2022-08-02T18:16:21.263Z,99315.22
2022-08-02T18:18:52.763Z,99327.13
2022-08-02T18:21:22.953Z,99337.50
2022-08-02T18:26:43.725Z,99338.25
2022-08-02T18:29:15.419Z,99343.16
2022-08-02T18:31:51.165Z,99336.28
2022-08-02T18:34:24.155Z,99341.81
2022-08-02T18:36:54.300Z,99343.34
2022-08-02T18:39:25.752Z,99344.41
2022-08-02T18:42:02.943Z,99342.22
2022-08-02T18:44:34.253Z,99343.34
2022-08-02T18:47:04.999Z,99349.53
2022-08-02T18:49:46.530Z,99359.91
2022-08-02T18:52:31.419Z,99355.69
2022-08-02T18:55:01.529Z,99362.25
2022-08-02T19:00:25.899Z,99362.66
2022-08-02T19:02:56.702Z,99370.78
2022-08-02T19:05:53.740Z,99371.28
2022-08-02T19:08:18.102Z,99384.88
2022-08-02T19:10:49.441Z,99386.53
2022-08-02T19:13:20.466Z,99384.53
2022-08-02T19:15:53.643Z,99373.94
2022-08-02T19:18:26.999Z,99380.84
2022-08-02T19:21:05.768Z,99392.78
2022-08-02T19:23:37.443Z,99392.19
2022-08-02T19:26:24.566Z,99390.75
2022-08-02T19:28:55.813Z,99392.19
2022-08-02T19:31:34.752Z,99391.59
2022-08-02T19:34:20.475Z,99391.00
2022-08-02T19:36:55.053Z,99396.41
2022-08-02T19:39:25.028Z,99386.66
2022-08-02T19:41:57.169Z,99404.91
2022-08-02T19:44:29.511Z,99397.28
2022-08-02T19:47:01.084Z,99397.28
2022-08-02T19:49:40.320Z,99398.34
2022-08-02T19:52:21.226Z,99393.59
2022-08-02T19:54:55.433Z,99395.50
2022-08-02T19:57:26.559Z,99390.88
2022-08-02T19:59:58.582Z,99389.69
2022-08-02T20:02:30.298Z,99392.91
2022-08-02T20:05:08.025Z,99398.41
2022-08-02T20:07:54.491Z,99391.44
2022-08-02T20:10:25.384Z,99392.97
2022-08-02T20:12:56.950Z,99391.06
2022-08-02T20:15:56.477Z,99388.44
2022-08-02T20:21:18.847Z,99385.50
2022-08-02T20:23:59.755Z,99389.53
2022-08-02T20:26:30.524Z,99397.97
2022-08-02T20:29:02.562Z,99386.94
2022-08-02T20:31:33.090Z,99397.25
2022-08-02T20:34:04.504Z,99386.94
2022-08-02T20:36:38.246Z,99396.31
2022-08-02T20:39:08.422Z,99397.75
2022-08-02T20:41:46.397Z,99389.44
2022-08-02T20:44:31.079Z,99398.13
2022-08-02T20:47:02.125Z,99390.84
2022-08-02T20:49:40.931Z,99396.09
2022-08-02T20:52:24.200Z,99386.94
2022-08-02T20:54:54.762Z,99386.81
2022-08-02T20:57:49.135Z,99392.19
2022-08-02T21:00:16.720Z,99392.53
2022-08-02T21:02:46.957Z,99388.50
2022-08-02T21:05:18.915Z,99397.41
2022-08-02T21:07:53.472Z,99399.66
2022-08-02T21:10:24.811Z,99405.94
2022-08-02T21:12:55.677Z,99402.72
2022-08-02T21:15:26.808Z,99408.44
2022-08-02T21:18:01.294Z,99405.69
2022-08-02T21:20:35.973Z,99409.38
2022-08-02T21:23:06.029Z,99407.63
2022-08-02T21:25:57.143Z,99402.88
2022-08-02T21:28:43.763Z,99412.69
2022-08-02T21:31:16.059Z,99408.38
2022-08-02T21:33:58.651Z,99418.44
2022-08-02T21:36:33.244Z,99408.94
2022-08-02T21:39:09.113Z,99403.50
2022-08-02T21:41:47.077Z,99409.44
2022-08-02T21:44:18.463Z,99416.56
2022-08-02T21:46:49.992Z,99409.91
2022-08-02T21:49:21.065Z,99411.19
2022-08-02T21:52:12.204Z,99414.16
2022-08-02T21:54:45.482Z,99413.75
2022-08-02T21:57:16.687Z,99407.72
2022-08-02T21:59:48.294Z,99407.03
2022-08-02T22:02:30.462Z,99406.06
2022-08-02T22:05:01.938Z,99406.03
2022-08-02T22:07:38.623Z,99395.00
2022-08-02T22:10:10.239Z,99406.56
2022-08-02T22:12:40.657Z,99406.25
2022-08-02T22:15:11.984Z,99406.59
2022-08-02T22:17:53.403Z,99408.66
2022-08-02T22:20:29.772Z,99420.94
2022-08-02T22:23:01.277Z,99423.75
2022-08-02T22:25:37.360Z,99422.41
2022-08-02T22:28:37.983Z,99422.94
2022-08-02T22:31:00.162Z,99423.38
2022-08-02T22:34:00.946Z,99418.81
2022-08-02T22:36:32.930Z,99422.41
2022-08-02T22:39:19.163Z,99418.84
2022-08-02T22:42:05.365Z,99422.06
2022-08-02T22:44:39.363Z,99421.66
2022-08-02T22:47:15.238Z,99418.84
2022-08-02T22:49:53.248Z,99422.09
2022-08-02T22:52:25.968Z,99424.38
2022-08-02T22:54:57.321Z,99422.56
2022-08-02T22:58:40.203Z,99274.44
2022-08-02T22:58:44.031Z,99334.16
2022-08-02T22:58:46.369Z,99362.75
2022-08-02T22:58:49.821Z,99275.38
2022-08-02T22:58:55.200Z,99387.75
2022-08-02T22:58:59.954Z,99308.13
2022-08-02T23:00:17.976Z,99427.47
2022-08-02T23:02:48.132Z,99422.03
2022-08-02T23:05:18.200Z,99428.19
2022-08-02T23:07:48.327Z,99421.75
2022-08-02T23:10:19.743Z,99423.59
2022-08-02T23:12:50.021Z,99429.50
2022-08-02T23:15:20.182Z,99419.38
2022-08-02T23:18:07.159Z,99420.31
2022-08-02T23:20:37.480Z,99425.38
2022-08-02T23:23:11.848Z,99427.50
2022-08-02T23:25:43.297Z,99423.59
2022-08-02T23:28:13.103Z,99423.34
2022-08-02T23:30:42.984Z,99421.28
2022-08-02T23:33:14.718Z,99421.28
2022-08-02T23:35:45.160Z,99419.59
2022-08-02T23:38:15.266Z,99426.31
2022-08-02T23:40:46.620Z,99425.47
2022-08-02T23:43:19.093Z,99424.22
2022-08-02T23:45:49.054Z,99423.47
2022-08-02T23:48:19.034Z,99434.16
2022-08-02T23:50:49.097Z,99435.44
2022-08-02T23:53:18.959Z,99436.25
2022-08-02T23:55:50.216Z,99430.81
2022-08-02T23:58:20.095Z,99438.13
